EmailTwitter


Observations de surface / France / LFPO (07149)

Régions: Québec | Canada | États-Unis | Europe | France | UK | Ailleurs
Station
Affichage
Infos & localisation pour LFPO (07149) | Aide pour décoder les METARs

Observations prises le 2017-09-23 à 09H00 UTC à PARIS/ORLY, FR (LFPO)

Température: 15.0 Celsius

Point de rosée: 10.0 Celsius

Humidité relative: 72%

Vents: Variable à 4 km/h ou 2 noeuds.

Pression au niveau moyen de la mer: 102.30 kilopascals.

Observation METAR:

LFPO 230900Z VRB02KT CAVOK 15/10 Q1023 NOSIG=